sensor_id;sensor_type;location;lat;lon;timestamp;temperature;humidity
2749;DHT22;1382;52.142;11.618;2023-05-19T00:01:17;15.80;34.50
2749;DHT22;1382;52.142;11.618;2023-05-19T00:03:53;15.80;34.40
2749;DHT22;1382;52.142;11.618;2023-05-19T00:06:21;15.80;34.80
2749;DHT22;1382;52.142;11.618;2023-05-19T00:08:49;15.70;35.30
2749;DHT22;1382;52.142;11.618;2023-05-19T00:11:16;15.70;34.70
2749;DHT22;1382;52.142;11.618;2023-05-19T00:13:44;15.70;34.70
2749;DHT22;1382;52.142;11.618;2023-05-19T00:16:12;15.70;34.80
2749;DHT22;1382;52.142;11.618;2023-05-19T00:18:39;15.70;34.70
2749;DHT22;1382;52.142;11.618;2023-05-19T00:21:07;15.60;34.90
2749;DHT22;1382;52.142;11.618;2023-05-19T00:23:34;15.70;35.40
2749;DHT22;1382;52.142;11.618;2023-05-19T00:26:02;15.70;35.20
2749;DHT22;1382;52.142;11.618;2023-05-19T00:28:28;15.70;35.20
2749;DHT22;1382;52.142;11.618;2023-05-19T00:30:55;15.70;35.00
2749;DHT22;1382;52.142;11.618;2023-05-19T00:33:22;15.70;35.10
2749;DHT22;1382;52.142;11.618;2023-05-19T00:35:49;15.70;35.20
2749;DHT22;1382;52.142;11.618;2023-05-19T00:38:17;15.70;35.30
2749;DHT22;1382;52.142;11.618;2023-05-19T00:40:44;15.70;35.40
2749;DHT22;1382;52.142;11.618;2023-05-19T00:43:11;15.70;35.40
2749;DHT22;1382;52.142;11.618;2023-05-19T00:45:38;15.70;35.20
2749;DHT22;1382;52.142;11.618;2023-05-19T00:48:04;15.70;35.50
2749;DHT22;1382;52.142;11.618;2023-05-19T00:50:32;15.70;36.20
2749;DHT22;1382;52.142;11.618;2023-05-19T00:52:59;15.70;35.60
2749;DHT22;1382;52.142;11.618;2023-05-19T00:55:28;15.70;35.70
2749;DHT22;1382;52.142;11.618;2023-05-19T00:57:57;15.70;36.00
2749;DHT22;1382;52.142;11.618;2023-05-19T01:00:23;15.70;35.60
2749;DHT22;1382;52.142;11.618;2023-05-19T01:02:50;15.70;35.60
2749;DHT22;1382;52.142;11.618;2023-05-19T01:05:17;15.70;35.40
2749;DHT22;1382;52.142;11.618;2023-05-19T01:07:44;15.70;35.80
2749;DHT22;1382;52.142;11.618;2023-05-19T01:10:11;15.70;35.60
2749;DHT22;1382;52.142;11.618;2023-05-19T01:12:39;15.70;35.50
2749;DHT22;1382;52.142;11.618;2023-05-19T01:15:07;15.70;35.50
2749;DHT22;1382;52.142;11.618;2023-05-19T01:17:40;15.70;35.40
2749;DHT22;1382;52.142;11.618;2023-05-19T01:20:15;15.70;35.80
2749;DHT22;1382;52.142;11.618;2023-05-19T01:23:11;15.70;35.90
2749;DHT22;1382;52.142;11.618;2023-05-19T01:29:11;15.70;35.30
2749;DHT22;1382;52.142;11.618;2023-05-19T01:31:45;15.60;35.80
2749;DHT22;1382;52.142;11.618;2023-05-19T01:34:13;15.60;35.50
2749;DHT22;1382;52.142;11.618;2023-05-19T01:36:42;15.60;35.90
2749;DHT22;1382;52.142;11.618;2023-05-19T01:39:10;15.60;35.50
2749;DHT22;1382;52.142;11.618;2023-05-19T01:41:40;15.60;35.50
2749;DHT22;1382;52.142;11.618;2023-05-19T01:44:09;15.60;35.80
2749;DHT22;1382;52.142;11.618;2023-05-19T01:46:36;15.60;35.60
2749;DHT22;1382;52.142;11.618;2023-05-19T01:49:05;15.60;35.30
2749;DHT22;1382;52.142;11.618;2023-05-19T01:51:33;15.60;35.40
2749;DHT22;1382;52.142;11.618;2023-05-19T01:54:00;15.60;35.70
2749;DHT22;1382;52.142;11.618;2023-05-19T01:56:33;15.60;36.10
2749;DHT22;1382;52.142;11.618;2023-05-19T01:59:14;15.60;36.20
2749;DHT22;1382;52.142;11.618;2023-05-19T02:01:47;15.60;36.10
2749;DHT22;1382;52.142;11.618;2023-05-19T02:04:26;15.60;36.50
2749;DHT22;1382;52.142;11.618;2023-05-19T02:07:00;15.50;37.20
2749;DHT22;1382;52.142;11.618;2023-05-19T02:09:36;15.50;36.30
2749;DHT22;1382;52.142;11.618;2023-05-19T02:12:09;15.50;36.40
2749;DHT22;1382;52.142;11.618;2023-05-19T02:14:40;15.50;36.30
2749;DHT22;1382;52.142;11.618;2023-05-19T02:17:12;15.50;36.80
2749;DHT22;1382;52.142;11.618;2023-05-19T02:19:42;15.50;36.00
2749;DHT22;1382;52.142;11.618;2023-05-19T02:22:09;15.50;35.90
2749;DHT22;1382;52.142;11.618;2023-05-19T02:24:36;15.50;35.90
2749;DHT22;1382;52.142;11.618;2023-05-19T02:27:03;15.60;36.00
2749;DHT22;1382;52.142;11.618;2023-05-19T02:29:30;15.50;35.60
2749;DHT22;1382;52.142;11.618;2023-05-19T02:31:57;15.50;36.00
2749;DHT22;1382;52.142;11.618;2023-05-19T02:34:24;15.50;35.90
2749;DHT22;1382;52.142;11.618;2023-05-19T02:36:52;15.40;35.80
2749;DHT22;1382;52.142;11.618;2023-05-19T02:39:19;15.40;36.10
2749;DHT22;1382;52.142;11.618;2023-05-19T02:41:46;15.60;35.90
2749;DHT22;1382;52.142;11.618;2023-05-19T02:44:12;15.40;35.70
2749;DHT22;1382;52.142;11.618;2023-05-19T02:46:39;15.50;35.60
2749;DHT22;1382;52.142;11.618;2023-05-19T02:49:06;15.40;35.70
2749;DHT22;1382;52.142;11.618;2023-05-19T02:51:33;15.50;35.60
2749;DHT22;1382;52.142;11.618;2023-05-19T02:54:01;15.30;35.30
2749;DHT22;1382;52.142;11.618;2023-05-19T02:56:28;15.30;35.80
2749;DHT22;1382;52.142;11.618;2023-05-19T02:58:54;15.30;35.40
2749;DHT22;1382;52.142;11.618;2023-05-19T03:01:21;15.40;35.20
2749;DHT22;1382;52.142;11.618;2023-05-19T03:03:48;15.30;35.40
2749;DHT22;1382;52.142;11.618;2023-05-19T03:06:15;15.30;35.30
2749;DHT22;1382;52.142;11.618;2023-05-19T03:08:42;15.20;35.30
2749;DHT22;1382;52.142;11.618;2023-05-19T03:11:10;15.10;35.30
2749;DHT22;1382;52.142;11.618;2023-05-19T03:13:37;15.20;35.50
2749;DHT22;1382;52.142;11.618;2023-05-19T03:16:04;15.10;35.70
2749;DHT22;1382;52.142;11.618;2023-05-19T03:18:30;15.10;35.40
2749;DHT22;1382;52.142;11.618;2023-05-19T03:20:57;15.10;35.10
2749;DHT22;1382;52.142;11.618;2023-05-19T03:23:24;15.10;35.50
2749;DHT22;1382;52.142;11.618;2023-05-19T03:25:51;15.00;36.10
2749;DHT22;1382;52.142;11.618;2023-05-19T03:28:19;15.10;35.60
2749;DHT22;1382;52.142;11.618;2023-05-19T03:30:46;15.00;35.30
2749;DHT22;1382;52.142;11.618;2023-05-19T03:33:13;14.90;35.70
2749;DHT22;1382;52.142;11.618;2023-05-19T03:35:40;14.90;35.80
2749;DHT22;1382;52.142;11.618;2023-05-19T03:38:07;14.90;35.20
2749;DHT22;1382;52.142;11.618;2023-05-19T03:40:33;14.90;35.40
2749;DHT22;1382;52.142;11.618;2023-05-19T03:43:00;14.80;35.70
2749;DHT22;1382;52.142;11.618;2023-05-19T03:45:28;14.80;36.20
2749;DHT22;1382;52.142;11.618;2023-05-19T03:47:55;14.80;36.60
2749;DHT22;1382;52.142;11.618;2023-05-19T03:50:22;14.80;36.50
2749;DHT22;1382;52.142;11.618;2023-05-19T03:52:49;14.70;35.70
2749;DHT22;1382;52.142;11.618;2023-05-19T03:55:16;14.80;35.60
2749;DHT22;1382;52.142;11.618;2023-05-19T03:57:43;14.70;35.60
2749;DHT22;1382;52.142;11.618;2023-05-19T04:00:10;14.70;36.30
2749;DHT22;1382;52.142;11.618;2023-05-19T04:02:39;14.60;36.00
2749;DHT22;1382;52.142;11.618;2023-05-19T04:05:06;14.60;35.50
2749;DHT22;1382;52.142;11.618;2023-05-19T04:07:33;14.60;36.40
2749;DHT22;1382;52.142;11.618;2023-05-19T04:10:02;14.60;36.00
2749;DHT22;1382;52.142;11.618;2023-05-19T04:12:28;14.60;36.00
2749;DHT22;1382;52.142;11.618;2023-05-19T04:14:55;14.60;35.90
2749;DHT22;1382;52.142;11.618;2023-05-19T04:17:22;14.60;36.30
2749;DHT22;1382;52.142;11.618;2023-05-19T04:19:50;14.50;36.80
2749;DHT22;1382;52.142;11.618;2023-05-19T04:22:17;14.50;35.70
2749;DHT22;1382;52.142;11.618;2023-05-19T04:24:44;14.50;35.90
2749;DHT22;1382;52.142;11.618;2023-05-19T04:27:11;14.50;36.20
2749;DHT22;1382;52.142;11.618;2023-05-19T04:29:38;14.50;35.90
2749;DHT22;1382;52.142;11.618;2023-05-19T04:32:05;14.50;35.90
2749;DHT22;1382;52.142;11.618;2023-05-19T04:34:31;14.50;36.10
2749;DHT22;1382;52.142;11.618;2023-05-19T04:37:00;14.50;35.90
2749;DHT22;1382;52.142;11.618;2023-05-19T04:39:26;14.50;36.10
2749;DHT22;1382;52.142;11.618;2023-05-19T04:41:53;14.50;36.80
2749;DHT22;1382;52.142;11.618;2023-05-19T04:44:20;14.50;36.40
2749;DHT22;1382;52.142;11.618;2023-05-19T04:46:47;14.60;36.60
2749;DHT22;1382;52.142;11.618;2023-05-19T04:49:13;14.60;36.60
2749;DHT22;1382;52.142;11.618;2023-05-19T04:51:40;14.60;36.50
2749;DHT22;1382;52.142;11.618;2023-05-19T04:54:08;14.60;36.40
2749;DHT22;1382;52.142;11.618;2023-05-19T04:56:35;14.60;36.60
2749;DHT22;1382;52.142;11.618;2023-05-19T04:59:02;14.60;36.40
2749;DHT22;1382;52.142;11.618;2023-05-19T05:01:29;14.60;36.70
2749;DHT22;1382;52.142;11.618;2023-05-19T05:03:55;14.70;36.80
2749;DHT22;1382;52.142;11.618;2023-05-19T05:06:22;14.80;36.70
2749;DHT22;1382;52.142;11.618;2023-05-19T05:08:50;14.70;36.80
2749;DHT22;1382;52.142;11.618;2023-05-19T05:11:19;14.80;36.90
2749;DHT22;1382;52.142;11.618;2023-05-19T05:13:46;14.90;36.90
2749;DHT22;1382;52.142;11.618;2023-05-19T05:16:14;14.90;36.90
2749;DHT22;1382;52.142;11.618;2023-05-19T05:18:41;14.90;37.20
2749;DHT22;1382;52.142;11.618;2023-05-19T05:21:11;15.00;37.20
2749;DHT22;1382;52.142;11.618;2023-05-19T05:23:38;15.10;37.00
2749;DHT22;1382;52.142;11.618;2023-05-19T05:26:09;15.10;37.00
2749;DHT22;1382;52.142;11.618;2023-05-19T05:28:41;15.20;37.40
2749;DHT22;1382;52.142;11.618;2023-05-19T05:31:08;15.30;37.40
2749;DHT22;1382;52.142;11.618;2023-05-19T05:33:35;15.40;37.70
2749;DHT22;1382;52.142;11.618;2023-05-19T05:36:02;15.40;37.60
2749;DHT22;1382;52.142;11.618;2023-05-19T05:38:30;15.50;37.50
2749;DHT22;1382;52.142;11.618;2023-05-19T05:40:56;15.60;37.50
2749;DHT22;1382;52.142;11.618;2023-05-19T05:43:23;15.70;37.40
2749;DHT22;1382;52.142;11.618;2023-05-19T05:45:51;15.70;38.30
2749;DHT22;1382;52.142;11.618;2023-05-19T05:48:19;15.80;37.70
2749;DHT22;1382;52.142;11.618;2023-05-19T05:50:47;15.80;37.60
2749;DHT22;1382;52.142;11.618;2023-05-19T05:53:17;15.90;37.70
2749;DHT22;1382;52.142;11.618;2023-05-19T05:55:45;16.00;37.80
2749;DHT22;1382;52.142;11.618;2023-05-19T05:58:12;16.10;37.70
2749;DHT22;1382;52.142;11.618;2023-05-19T06:00:39;16.20;37.70
2749;DHT22;1382;52.142;11.618;2023-05-19T06:03:07;16.30;37.50
2749;DHT22;1382;52.142;11.618;2023-05-19T06:05:34;16.40;37.50
2749;DHT22;1382;52.142;11.618;2023-05-19T06:08:01;16.50;37.40
2749;DHT22;1382;52.142;11.618;2023-05-19T06:10:28;16.60;37.40
2749;DHT22;1382;52.142;11.618;2023-05-19T06:12:55;16.70;37.40
2749;DHT22;1382;52.142;11.618;2023-05-19T06:15:22;16.80;37.60
2749;DHT22;1382;52.142;11.618;2023-05-19T06:17:49;16.90;37.00
2749;DHT22;1382;52.142;11.618;2023-05-19T06:20:17;17.00;37.00
2749;DHT22;1382;52.142;11.618;2023-05-19T06:22:44;17.10;37.10
2749;DHT22;1382;52.142;11.618;2023-05-19T06:25:11;17.10;36.90
2749;DHT22;1382;52.142;11.618;2023-05-19T06:27:37;17.20;36.80
2749;DHT22;1382;52.142;11.618;2023-05-19T06:30:05;17.30;36.70
2749;DHT22;1382;52.142;11.618;2023-05-19T06:32:32;17.30;36.90
2749;DHT22;1382;52.142;11.618;2023-05-19T06:34:59;17.40;37.00
2749;DHT22;1382;52.142;11.618;2023-05-19T06:37:28;17.40;36.70
2749;DHT22;1382;52.142;11.618;2023-05-19T06:39:54;17.50;36.60
2749;DHT22;1382;52.142;11.618;2023-05-19T06:42:21;17.50;36.60
2749;DHT22;1382;52.142;11.618;2023-05-19T06:44:48;17.60;36.50
2749;DHT22;1382;52.142;11.618;2023-05-19T06:47:15;17.60;36.60
2749;DHT22;1382;52.142;11.618;2023-05-19T06:49:42;17.70;36.60
2749;DHT22;1382;52.142;11.618;2023-05-19T06:52:34;17.70;36.70
2749;DHT22;1382;52.142;11.618;2023-05-19T06:55:08;17.90;36.70
2749;DHT22;1382;52.142;11.618;2023-05-19T06:57:35;17.80;36.50
2749;DHT22;1382;52.142;11.618;2023-05-19T07:00:02;17.90;37.20
2749;DHT22;1382;52.142;11.618;2023-05-19T07:02:29;18.00;36.70
2749;DHT22;1382;52.142;11.618;2023-05-19T07:04:56;18.10;36.80
2749;DHT22;1382;52.142;11.618;2023-05-19T07:07:23;18.10;36.60
2749;DHT22;1382;52.142;11.618;2023-05-19T07:09:51;18.20;36.80
2749;DHT22;1382;52.142;11.618;2023-05-19T07:12:18;18.30;36.90
2749;DHT22;1382;52.142;11.618;2023-05-19T07:14:45;18.40;37.10
2749;DHT22;1382;52.142;11.618;2023-05-19T07:17:12;18.40;37.20
2749;DHT22;1382;52.142;11.618;2023-05-19T07:19:38;18.50;36.80
2749;DHT22;1382;52.142;11.618;2023-05-19T07:22:05;18.60;36.60
2749;DHT22;1382;52.142;11.618;2023-05-19T07:24:32;18.70;36.60
2749;DHT22;1382;52.142;11.618;2023-05-19T07:27:00;18.80;36.90
2749;DHT22;1382;52.142;11.618;2023-05-19T07:29:27;18.90;36.90
2749;DHT22;1382;52.142;11.618;2023-05-19T07:31:53;19.00;36.90
2749;DHT22;1382;52.142;11.618;2023-05-19T07:34:20;19.10;37.00
2749;DHT22;1382;52.142;11.618;2023-05-19T07:36:47;19.20;36.70
2749;DHT22;1382;52.142;11.618;2023-05-19T07:39:14;19.30;36.70
2749;DHT22;1382;52.142;11.618;2023-05-19T07:41:41;19.40;36.80
2749;DHT22;1382;52.142;11.618;2023-05-19T07:44:09;19.50;37.70
2749;DHT22;1382;52.142;11.618;2023-05-19T07:46:36;19.70;38.00
2749;DHT22;1382;52.142;11.618;2023-05-19T07:49:03;19.80;38.30
2749;DHT22;1382;52.142;11.618;2023-05-19T07:51:30;19.90;37.90
2749;DHT22;1382;52.142;11.618;2023-05-19T07:53:57;20.00;38.10
2749;DHT22;1382;52.142;11.618;2023-05-19T07:56:23;20.10;37.90
2749;DHT22;1382;52.142;11.618;2023-05-19T07:58:50;20.20;37.90
2749;DHT22;1382;52.142;11.618;2023-05-19T08:01:18;20.40;38.10
2749;DHT22;1382;52.142;11.618;2023-05-19T08:03:45;20.50;37.90
2749;DHT22;1382;52.142;11.618;2023-05-19T08:06:12;20.50;38.00
2749;DHT22;1382;52.142;11.618;2023-05-19T08:08:39;20.60;38.00
2749;DHT22;1382;52.142;11.618;2023-05-19T08:11:05;20.70;37.90
2749;DHT22;1382;52.142;11.618;2023-05-19T08:13:32;20.80;38.20
2749;DHT22;1382;52.142;11.618;2023-05-19T08:15:59;21.00;38.30
2749;DHT22;1382;52.142;11.618;2023-05-19T08:18:27;21.10;37.70
2749;DHT22;1382;52.142;11.618;2023-05-19T08:20:54;21.30;38.00
2749;DHT22;1382;52.142;11.618;2023-05-19T08:23:21;21.40;38.00
2749;DHT22;1382;52.142;11.618;2023-05-19T08:25:48;21.70;38.10
2749;DHT22;1382;52.142;11.618;2023-05-19T08:28:15;21.70;38.00
2749;DHT22;1382;52.142;11.618;2023-05-19T08:30:42;21.80;37.80
2749;DHT22;1382;52.142;11.618;2023-05-19T08:33:08;21.90;37.70
2749;DHT22;1382;52.142;11.618;2023-05-19T08:35:37;22.10;37.80
2749;DHT22;1382;52.142;11.618;2023-05-19T08:38:03;22.10;37.40
2749;DHT22;1382;52.142;11.618;2023-05-19T08:40:32;22.30;37.70
2749;DHT22;1382;52.142;11.618;2023-05-19T08:42:59;22.40;37.40
2749;DHT22;1382;52.142;11.618;2023-05-19T08:45:26;22.40;37.40
2749;DHT22;1382;52.142;11.618;2023-05-19T08:47:52;22.50;36.90
2749;DHT22;1382;52.142;11.618;2023-05-19T08:50:22;22.60;36.20
2749;DHT22;1382;52.142;11.618;2023-05-19T08:52:54;22.70;36.20
2749;DHT22;1382;52.142;11.618;2023-05-19T08:55:30;22.80;35.80
2749;DHT22;1382;52.142;11.618;2023-05-19T08:58:00;22.80;36.00
2749;DHT22;1382;52.142;11.618;2023-05-19T09:00:29;22.80;35.30
2749;DHT22;1382;52.142;11.618;2023-05-19T09:02:56;22.90;35.70
2749;DHT22;1382;52.142;11.618;2023-05-19T09:05:37;22.90;35.50
2749;DHT22;1382;52.142;11.618;2023-05-19T09:08:06;22.90;35.30
2749;DHT22;1382;52.142;11.618;2023-05-19T09:10:33;22.90;35.20
2749;DHT22;1382;52.142;11.618;2023-05-19T09:12:59;23.00;34.80
2749;DHT22;1382;52.142;11.618;2023-05-19T09:15:27;23.00;34.50
2749;DHT22;1382;52.142;11.618;2023-05-19T09:18:05;23.00;34.80
2749;DHT22;1382;52.142;11.618;2023-05-19T09:20:35;23.00;35.10
2749;DHT22;1382;52.142;11.618;2023-05-19T09:23:02;23.00;35.10
2749;DHT22;1382;52.142;11.618;2023-05-19T09:25:30;23.10;35.10
2749;DHT22;1382;52.142;11.618;2023-05-19T09:27:57;23.10;34.50
2749;DHT22;1382;52.142;11.618;2023-05-19T09:30:24;23.10;33.90
2749;DHT22;1382;52.142;11.618;2023-05-19T09:32:51;23.30;33.70
2749;DHT22;1382;52.142;11.618;2023-05-19T09:35:18;23.20;33.80
2749;DHT22;1382;52.142;11.618;2023-05-19T09:37:45;23.20;34.00
2749;DHT22;1382;52.142;11.618;2023-05-19T09:40:13;23.30;33.60
2749;DHT22;1382;52.142;11.618;2023-05-19T09:42:41;23.30;33.30
2749;DHT22;1382;52.142;11.618;2023-05-19T09:45:08;23.30;33.50
2749;DHT22;1382;52.142;11.618;2023-05-19T09:47:36;23.40;33.40
2749;DHT22;1382;52.142;11.618;2023-05-19T09:50:04;23.40;34.00
2749;DHT22;1382;52.142;11.618;2023-05-19T09:52:34;23.50;33.10
2749;DHT22;1382;52.142;11.618;2023-05-19T09:55:01;23.60;33.30
2749;DHT22;1382;52.142;11.618;2023-05-19T09:57:32;23.60;33.00
2749;DHT22;1382;52.142;11.618;2023-05-19T10:00:02;23.70;32.90
2749;DHT22;1382;52.142;11.618;2023-05-19T10:02:30;23.80;33.00
2749;DHT22;1382;52.142;11.618;2023-05-19T10:04:57;23.90;33.20
2749;DHT22;1382;52.142;11.618;2023-05-19T10:07:23;24.00;33.00
2749;DHT22;1382;52.142;11.618;2023-05-19T10:09:52;24.00;32.70
2749;DHT22;1382;52.142;11.618;2023-05-19T10:12:22;24.10;32.50
2749;DHT22;1382;52.142;11.618;2023-05-19T10:14:49;24.20;32.80
2749;DHT22;1382;52.142;11.618;2023-05-19T10:17:18;24.30;32.80
2749;DHT22;1382;52.142;11.618;2023-05-19T10:19:46;24.30;32.50
2749;DHT22;1382;52.142;11.618;2023-05-19T10:22:15;24.50;32.90
2749;DHT22;1382;52.142;11.618;2023-05-19T10:24:42;24.50;33.40
2749;DHT22;1382;52.142;11.618;2023-05-19T10:27:11;24.60;32.40
2749;DHT22;1382;52.142;11.618;2023-05-19T10:29:43;24.70;32.40
2749;DHT22;1382;52.142;11.618;2023-05-19T10:32:15;24.80;31.90
2749;DHT22;1382;52.142;11.618;2023-05-19T10:38:23;24.90;31.50
2749;DHT22;1382;52.142;11.618;2023-05-19T10:41:00;24.80;31.40
2749;DHT22;1382;52.142;11.618;2023-05-19T10:43:43;24.90;31.80
2749;DHT22;1382;52.142;11.618;2023-05-19T10:46:13;24.90;31.80
2749;DHT22;1382;52.142;11.618;2023-05-19T10:48:43;24.90;31.20
2749;DHT22;1382;52.142;11.618;2023-05-19T10:51:10;25.00;31.20
2749;DHT22;1382;52.142;11.618;2023-05-19T10:53:41;25.00;31.30
2749;DHT22;1382;52.142;11.618;2023-05-19T10:56:08;25.10;30.70
2749;DHT22;1382;52.142;11.618;2023-05-19T10:58:47;25.10;31.00
2749;DHT22;1382;52.142;11.618;2023-05-19T11:01:15;25.10;31.60
2749;DHT22;1382;52.142;11.618;2023-05-19T11:03:47;25.20;31.60
2749;DHT22;1382;52.142;11.618;2023-05-19T11:06:24;25.30;31.80
2749;DHT22;1382;52.142;11.618;2023-05-19T11:08:54;25.40;31.50
2749;DHT22;1382;52.142;11.618;2023-05-19T11:11:21;25.50;31.50
2749;DHT22;1382;52.142;11.618;2023-05-19T11:13:50;25.50;31.20
2749;DHT22;1382;52.142;11.618;2023-05-19T11:16:26;25.70;31.30
2749;DHT22;1382;52.142;11.618;2023-05-19T11:18:53;25.80;31.10
2749;DHT22;1382;52.142;11.618;2023-05-19T11:21:21;25.90;31.40
2749;DHT22;1382;52.142;11.618;2023-05-19T11:23:48;26.00;31.10
2749;DHT22;1382;52.142;11.618;2023-05-19T11:26:40;26.10;31.10
2749;DHT22;1382;52.142;11.618;2023-05-19T11:29:07;26.20;30.70
2749;DHT22;1382;52.142;11.618;2023-05-19T11:31:34;26.20;30.60
2749;DHT22;1382;52.142;11.618;2023-05-19T11:34:02;26.20;30.40
2749;DHT22;1382;52.142;11.618;2023-05-19T11:36:30;26.40;30.30
2749;DHT22;1382;52.142;11.618;2023-05-19T11:38:58;26.30;30.00
2749;DHT22;1382;52.142;11.618;2023-05-19T11:41:28;26.40;30.20
2749;DHT22;1382;52.142;11.618;2023-05-19T11:43:54;26.50;30.00
2749;DHT22;1382;52.142;11.618;2023-05-19T11:46:21;26.60;30.00
2749;DHT22;1382;52.142;11.618;2023-05-19T11:48:48;26.60;29.60
2749;DHT22;1382;52.142;11.618;2023-05-19T11:51:16;26.70;29.80
2749;DHT22;1382;52.142;11.618;2023-05-19T11:53:43;26.70;29.70
2749;DHT22;1382;52.142;11.618;2023-05-19T11:56:10;26.80;29.60
2749;DHT22;1382;52.142;11.618;2023-05-19T11:58:38;26.90;29.20
2749;DHT22;1382;52.142;11.618;2023-05-19T12:01:05;26.80;29.00
2749;DHT22;1382;52.142;11.618;2023-05-19T12:03:32;26.80;28.80
2749;DHT22;1382;52.142;11.618;2023-05-19T12:05:59;26.80;28.40
2749;DHT22;1382;52.142;11.618;2023-05-19T12:08:26;26.60;28.10
2749;DHT22;1382;52.142;11.618;2023-05-19T12:10:52;26.60;28.20
2749;DHT22;1382;52.142;11.618;2023-05-19T12:13:21;26.50;28.10
2749;DHT22;1382;52.142;11.618;2023-05-19T12:15:50;26.50;28.30
2749;DHT22;1382;52.142;11.618;2023-05-19T12:18:18;26.50;28.50
2749;DHT22;1382;52.142;11.618;2023-05-19T12:20:45;26.50;28.10
2749;DHT22;1382;52.142;11.618;2023-05-19T12:23:12;26.50;28.10
2749;DHT22;1382;52.142;11.618;2023-05-19T12:25:40;26.60;28.40
2749;DHT22;1382;52.142;11.618;2023-05-19T12:28:06;26.60;29.10
2749;DHT22;1382;52.142;11.618;2023-05-19T12:30:33;26.60;28.90
2749;DHT22;1382;52.142;11.618;2023-05-19T12:33:02;26.60;29.10
2749;DHT22;1382;52.142;11.618;2023-05-19T12:35:30;26.70;29.30
2749;DHT22;1382;52.142;11.618;2023-05-19T12:38:01;26.80;28.50
2749;DHT22;1382;52.142;11.618;2023-05-19T12:40:28;26.90;29.20
2749;DHT22;1382;52.142;11.618;2023-05-19T12:42:56;26.90;28.10
2749;DHT22;1382;52.142;11.618;2023-05-19T12:45:22;27.00;28.60
2749;DHT22;1382;52.142;11.618;2023-05-19T12:47:50;27.20;28.70
2749;DHT22;1382;52.142;11.618;2023-05-19T12:50:18;27.30;29.20
2749;DHT22;1382;52.142;11.618;2023-05-19T12:52:46;27.40;28.40
2749;DHT22;1382;52.142;11.618;2023-05-19T12:55:13;27.40;28.10
2749;DHT22;1382;52.142;11.618;2023-05-19T12:57:41;27.40;28.40
2749;DHT22;1382;52.142;11.618;2023-05-19T13:00:13;27.40;28.10
2749;DHT22;1382;52.142;11.618;2023-05-19T13:02:57;27.40;27.90
2749;DHT22;1382;52.142;11.618;2023-05-19T13:05:26;27.40;27.30
2749;DHT22;1382;52.142;11.618;2023-05-19T13:07:56;27.30;27.60
2749;DHT22;1382;52.142;11.618;2023-05-19T13:10:24;27.30;27.50
2749;DHT22;1382;52.142;11.618;2023-05-19T13:12:51;27.40;27.80
2749;DHT22;1382;52.142;11.618;2023-05-19T13:15:18;27.40;27.40
2749;DHT22;1382;52.142;11.618;2023-05-19T13:17:45;27.40;27.30
2749;DHT22;1382;52.142;11.618;2023-05-19T13:20:12;27.40;27.70
2749;DHT22;1382;52.142;11.618;2023-05-19T13:22:40;27.30;27.40
2749;DHT22;1382;52.142;11.618;2023-05-19T13:25:08;27.30;27.00
2749;DHT22;1382;52.142;11.618;2023-05-19T13:27:34;27.20;26.90
2749;DHT22;1382;52.142;11.618;2023-05-19T13:30:02;27.10;26.80
2749;DHT22;1382;52.142;11.618;2023-05-19T13:32:29;27.00;27.00
2749;DHT22;1382;52.142;11.618;2023-05-19T13:34:56;27.00;27.40
2749;DHT22;1382;52.142;11.618;2023-05-19T13:37:22;27.00;26.90
2749;DHT22;1382;52.142;11.618;2023-05-19T13:39:51;26.90;27.00
2749;DHT22;1382;52.142;11.618;2023-05-19T13:42:17;26.90;27.00
2749;DHT22;1382;52.142;11.618;2023-05-19T13:44:45;26.90;26.90
2749;DHT22;1382;52.142;11.618;2023-05-19T13:47:12;26.80;27.00
2749;DHT22;1382;52.142;11.618;2023-05-19T13:49:38;26.80;27.40
2749;DHT22;1382;52.142;11.618;2023-05-19T13:52:06;26.70;26.70
2749;DHT22;1382;52.142;11.618;2023-05-19T13:54:33;26.70;27.30
2749;DHT22;1382;52.142;11.618;2023-05-19T13:57:01;26.70;27.40
2749;DHT22;1382;52.142;11.618;2023-05-19T13:59:28;26.70;27.10
2749;DHT22;1382;52.142;11.618;2023-05-19T14:01:54;26.70;27.30
2749;DHT22;1382;52.142;11.618;2023-05-19T14:04:21;26.60;27.00
2749;DHT22;1382;52.142;11.618;2023-05-19T14:06:48;26.60;27.30
2749;DHT22;1382;52.142;11.618;2023-05-19T14:09:15;26.60;27.40
2749;DHT22;1382;52.142;11.618;2023-05-19T14:11:42;26.60;27.40
2749;DHT22;1382;52.142;11.618;2023-05-19T14:14:10;26.60;27.40
2749;DHT22;1382;52.142;11.618;2023-05-19T14:16:37;26.60;27.00
2749;DHT22;1382;52.142;11.618;2023-05-19T14:19:04;26.50;27.20
2749;DHT22;1382;52.142;11.618;2023-05-19T14:21:31;26.50;27.30
2749;DHT22;1382;52.142;11.618;2023-05-19T14:23:57;26.40;27.30
2749;DHT22;1382;52.142;11.618;2023-05-19T14:26:24;26.40;27.40
2749;DHT22;1382;52.142;11.618;2023-05-19T14:28:54;26.40;27.80
2749;DHT22;1382;52.142;11.618;2023-05-19T14:31:22;26.40;27.70
2749;DHT22;1382;52.142;11.618;2023-05-19T14:33:50;26.40;28.00
2749;DHT22;1382;52.142;11.618;2023-05-19T14:36:17;26.40;28.30
2749;DHT22;1382;52.142;11.618;2023-05-19T14:38:44;26.40;27.60
2749;DHT22;1382;52.142;11.618;2023-05-19T14:41:11;26.40;27.50
2749;DHT22;1382;52.142;11.618;2023-05-19T14:43:37;26.40;27.70
2749;DHT22;1382;52.142;11.618;2023-05-19T14:46:04;26.40;27.50
2749;DHT22;1382;52.142;11.618;2023-05-19T14:48:32;26.40;27.60
2749;DHT22;1382;52.142;11.618;2023-05-19T14:50:59;26.40;27.30
2749;DHT22;1382;52.142;11.618;2023-05-19T14:53:25;26.40;27.50
2749;DHT22;1382;52.142;11.618;2023-05-19T14:55:52;26.40;27.90
2749;DHT22;1382;52.142;11.618;2023-05-19T14:58:19;26.40;27.60
2749;DHT22;1382;52.142;11.618;2023-05-19T15:00:56;26.40;27.90
2749;DHT22;1382;52.142;11.618;2023-05-19T15:03:23;26.40;28.10
2749;DHT22;1382;52.142;11.618;2023-05-19T15:05:51;26.40;28.10
2749;DHT22;1382;52.142;11.618;2023-05-19T15:08:18;26.50;28.40
2749;DHT22;1382;52.142;11.618;2023-05-19T15:10:47;26.50;27.80
2749;DHT22;1382;52.142;11.618;2023-05-19T15:13:14;26.60;27.70
2749;DHT22;1382;52.142;11.618;2023-05-19T15:15:40;26.70;27.60
2749;DHT22;1382;52.142;11.618;2023-05-19T15:18:07;26.70;27.60
2749;DHT22;1382;52.142;11.618;2023-05-19T15:20:34;26.80;27.70
2749;DHT22;1382;52.142;11.618;2023-05-19T15:23:02;26.80;27.30
2749;DHT22;1382;52.142;11.618;2023-05-19T15:25:29;26.80;27.10
2749;DHT22;1382;52.142;11.618;2023-05-19T15:27:56;26.90;27.50
2749;DHT22;1382;52.142;11.618;2023-05-19T15:30:22;26.90;27.40
2749;DHT22;1382;52.142;11.618;2023-05-19T15:32:49;27.00;27.60
2749;DHT22;1382;52.142;11.618;2023-05-19T15:35:16;27.00;27.70
2749;DHT22;1382;52.142;11.618;2023-05-19T15:37:42;27.00;27.50
2749;DHT22;1382;52.142;11.618;2023-05-19T15:40:11;27.10;27.60
2749;DHT22;1382;52.142;11.618;2023-05-19T15:42:38;27.10;27.70
2749;DHT22;1382;52.142;11.618;2023-05-19T15:45:06;27.10;27.40
2749;DHT22;1382;52.142;11.618;2023-05-19T15:47:33;27.10;27.70
2749;DHT22;1382;52.142;11.618;2023-05-19T15:50:00;27.10;27.60
2749;DHT22;1382;52.142;11.618;2023-05-19T15:52:27;27.00;27.30
2749;DHT22;1382;52.142;11.618;2023-05-19T15:54:54;27.00;27.20
2749;DHT22;1382;52.142;11.618;2023-05-19T15:57:22;27.00;27.30